createdAt,value
2023-03-05T00:01:53.449Z,159583.94
2023-03-05T00:04:57.660Z,159591.75
2023-03-05T00:08:02.000Z,159577.44
2023-03-05T00:11:08.805Z,159576.09
2023-03-05T00:14:13.372Z,159560.50
2023-03-05T00:17:17.606Z,159542.22
2023-03-05T00:20:21.541Z,159552.69
2023-03-05T00:23:26.158Z,159542.22
2023-03-05T00:26:30.877Z,159531.81
2023-03-05T00:29:34.827Z,159521.34
2023-03-05T00:32:39.260Z,159503.09
2023-03-05T00:35:46.219Z,159524.00
2023-03-05T00:38:51.080Z,159510.94
2023-03-05T00:41:55.469Z,159508.34
2023-03-05T00:44:59.620Z,159500.53
2023-03-05T00:48:04.287Z,159512.25
2023-03-05T00:51:09.301Z,159504.38
2023-03-05T00:54:13.155Z,159494.03
2023-03-05T00:57:17.610Z,159483.59
2023-03-05T01:00:21.775Z,159478.38
2023-03-05T01:03:26.009Z,159494.03
2023-03-05T01:06:30.081Z,159465.31
2023-03-05T01:09:34.350Z,159465.31
2023-03-05T01:12:39.482Z,159477.06
2023-03-05T01:15:43.464Z,159469.25
2023-03-05T01:18:47.374Z,159482.28
2023-03-05T01:21:51.381Z,159474.47
2023-03-05T01:24:55.610Z,159478.38
2023-03-05T01:27:59.823Z,159479.66
2023-03-05T01:31:07.882Z,159471.81
2023-03-05T01:34:11.855Z,159469.25
2023-03-05T01:37:15.835Z,159453.59
2023-03-05T01:40:26.037Z,159443.13
2023-03-05T01:43:31.058Z,159461.41
2023-03-05T01:46:37.349Z,159440.53
2023-03-05T01:49:41.758Z,159452.28
2023-03-05T01:52:52.499Z,159445.78
2023-03-05T01:55:57.477Z,159443.13
2023-03-05T01:59:05.076Z,159439.22
2023-03-05T02:02:09.319Z,159466.63
2023-03-05T02:05:18.205Z,159444.44
2023-03-05T02:08:22.658Z,159437.94
2023-03-05T02:11:26.639Z,159445.78
2023-03-05T02:14:31.308Z,159447.03
2023-03-05T02:17:35.278Z,159450.94
2023-03-05T02:20:50.692Z,159439.22
2023-03-05T02:23:54.857Z,159428.84
2023-03-05T02:26:59.103Z,159419.72
2023-03-05T02:30:03.832Z,159435.38
2023-03-05T02:33:08.396Z,159419.72
2023-03-05T02:36:13.086Z,159430.13
2023-03-05T02:39:18.018Z,159430.13
2023-03-05T02:42:22.155Z,159423.63
2023-03-05T02:45:26.402Z,159424.94
2023-03-05T02:48:31.132Z,159402.75
2023-03-05T02:51:35.133Z,159388.44
2023-03-05T02:54:39.230Z,159396.25
2023-03-05T02:57:43.592Z,159387.13
2023-03-05T03:00:48.071Z,159363.66
2023-03-05T03:03:52.136Z,159368.84
2023-03-05T03:06:55.945Z,159374.06
2023-03-05T03:09:59.911Z,159357.16
2023-03-05T03:13:04.019Z,159351.94
2023-03-05T03:16:11.521Z,159364.94
2023-03-05T03:19:15.585Z,159354.59
2023-03-05T03:22:19.713Z,159351.94
2023-03-05T03:25:23.707Z,159345.44
2023-03-05T03:28:27.920Z,159340.22
2023-03-05T03:31:31.948Z,159338.94
2023-03-05T03:34:36.252Z,159342.84
2023-03-05T03:37:40.597Z,159354.59
2023-03-05T03:40:44.395Z,159338.94
2023-03-05T03:43:48.657Z,159320.66
2023-03-05T03:46:54.569Z,159299.81
2023-03-05T03:50:01.590Z,159312.84
2023-03-05T03:53:06.236Z,159310.22
2023-03-05T03:56:10.624Z,159272.50
2023-03-05T03:59:14.943Z,159247.72
2023-03-05T04:02:18.883Z,159259.44
2023-03-05T04:05:23.241Z,159269.84
2023-03-05T04:08:27.203Z,159301.13
2023-03-05T04:11:31.614Z,159305.03
2023-03-05T04:14:36.140Z,159306.31
2023-03-05T04:17:40.344Z,159305.03
2023-03-05T04:20:44.372Z,159319.34
2023-03-05T04:23:48.460Z,159307.63
2023-03-05T04:26:52.695Z,159320.66
2023-03-05T04:29:56.990Z,159334.97
2023-03-05T04:33:01.036Z,159327.16
2023-03-05T04:36:05.832Z,159318.09
2023-03-05T04:39:10.188Z,159345.44
2023-03-05T04:42:14.444Z,159331.06
2023-03-05T04:45:18.359Z,159345.44
2023-03-05T04:48:22.529Z,159346.75
2023-03-05T04:51:26.843Z,159340.22
2023-03-05T04:54:30.684Z,159328.50
2023-03-05T04:57:35.705Z,159337.63
2023-03-05T05:00:39.579Z,159337.63
2023-03-05T05:03:43.754Z,159328.50
2023-03-05T05:06:47.732Z,159338.94
2023-03-05T05:09:51.867Z,159354.59
2023-03-05T05:12:55.784Z,159350.69
2023-03-05T05:16:00.046Z,159354.59
2023-03-05T05:19:04.203Z,159353.25
2023-03-05T05:22:08.235Z,159363.66
2023-03-05T05:25:12.604Z,159354.59
2023-03-05T05:28:16.605Z,159379.31
2023-03-05T05:31:21.023Z,159383.22
2023-03-05T05:34:25.830Z,159385.81
2023-03-05T05:37:30.249Z,159396.25
2023-03-05T05:40:34.351Z,159387.13
2023-03-05T05:43:38.782Z,159387.13
2023-03-05T05:46:43.279Z,159400.19
2023-03-05T05:49:47.626Z,159404.09
2023-03-05T05:52:54.832Z,159404.09
2023-03-05T05:55:59.110Z,159413.22
2023-03-05T05:59:03.193Z,159406.69
2023-03-05T06:02:08.322Z,159415.81
2023-03-05T06:05:14.779Z,159443.13
2023-03-05T06:08:19.090Z,159419.72
2023-03-05T06:11:24.106Z,159432.78
2023-03-05T06:14:28.146Z,159444.44
2023-03-05T06:17:31.862Z,159437.94
2023-03-05T06:20:35.829Z,159427.53
2023-03-05T06:23:40.614Z,159411.91
2023-03-05T06:26:46.687Z,159396.25
2023-03-05T06:29:53.427Z,159385.81
2023-03-05T06:32:57.292Z,159375.41
2023-03-05T06:36:06.844Z,159389.72
2023-03-05T06:39:10.784Z,159389.72
2023-03-05T06:42:17.644Z,159393.63
2023-03-05T06:45:21.460Z,159393.63
2023-03-05T06:48:25.775Z,159410.59
2023-03-05T06:51:32.934Z,159445.78
2023-03-05T06:54:36.878Z,159458.81
2023-03-05T06:57:41.151Z,159452.28
2023-03-05T07:00:45.255Z,159450.94
2023-03-05T07:03:54.646Z,159439.22
2023-03-05T07:06:59.190Z,159449.69
2023-03-05T07:10:04.541Z,159440.53
2023-03-05T07:13:08.697Z,159453.59
2023-03-05T07:16:24.468Z,159475.72
2023-03-05T07:19:28.279Z,159510.94
2023-03-05T07:22:32.583Z,159512.25
2023-03-05T07:25:37.303Z,159529.16
2023-03-05T07:28:41.822Z,159525.25
2023-03-05T07:31:45.430Z,159507.03
2023-03-05T07:34:49.616Z,159524.00
2023-03-05T07:37:55.824Z,159529.16
2023-03-05T07:41:04.715Z,159504.38
2023-03-05T07:44:09.715Z,159516.16
2023-03-05T07:47:14.097Z,159510.94
2023-03-05T07:50:18.522Z,159492.69
2023-03-05T07:53:22.481Z,159513.53
2023-03-05T07:56:32.037Z,159530.50
2023-03-05T07:59:36.030Z,159555.28
2023-03-05T08:02:40.350Z,159556.59
2023-03-05T08:05:45.064Z,159563.09
2023-03-05T08:08:49.424Z,159606.13
2023-03-05T08:11:53.676Z,159645.22
2023-03-05T08:14:57.460Z,159672.63
2023-03-05T08:18:01.468Z,159714.38
2023-03-05T08:21:06.568Z,159741.72
2023-03-05T08:24:12.229Z,159779.53
2023-03-05T08:27:16.318Z,159763.91
2023-03-05T08:30:22.380Z,159749.53
2023-03-05T08:33:26.371Z,159774.34
2023-03-05T08:36:30.924Z,159791.28
2023-03-05T08:39:36.827Z,159808.25
2023-03-05T08:42:40.900Z,159873.44
2023-03-05T08:45:44.663Z,159860.41
2023-03-05T08:48:48.874Z,159879.97
2023-03-05T08:51:52.913Z,159886.50
2023-03-05T08:54:57.581Z,159885.19
2023-03-05T08:58:01.835Z,159925.66
2023-03-05T09:01:06.126Z,159915.22
2023-03-05T09:04:10.017Z,159951.75
2023-03-05T09:07:14.239Z,159937.41
2023-03-05T09:10:19.230Z,159926.94
2023-03-05T09:13:23.259Z,159899.56
2023-03-05T09:16:27.711Z,159891.72
2023-03-05T09:19:31.635Z,159920.41
2023-03-05T09:22:35.687Z,159925.66
2023-03-05T09:25:42.579Z,159874.75
2023-03-05T09:28:47.325Z,159831.69
2023-03-05T09:31:51.720Z,159799.09
2023-03-05T09:34:55.518Z,159766.50
2023-03-05T09:37:59.197Z,159735.19
2023-03-05T09:41:09.857Z,159716.97
2023-03-05T09:44:35.320Z,159711.72
2023-03-05T09:47:57.278Z,159675.22
2023-03-05T09:51:03.259Z,159668.72
2023-03-05T09:54:17.392Z,159668.72
2023-03-05T09:57:33.958Z,159694.75
2023-03-05T10:00:47.938Z,159706.53
2023-03-05T10:04:23.922Z,159773.06
2023-03-05T10:07:33.449Z,159775.66
2023-03-05T10:10:40.176Z,159782.13
2023-03-05T10:13:45.433Z,159758.69
2023-03-05T10:16:55.126Z,159761.28
2023-03-05T10:20:24.323Z,159816.06
2023-03-05T10:23:41.864Z,159911.31
2023-03-05T10:26:54.668Z,159955.66
2023-03-05T10:30:01.560Z,159949.16
2023-03-05T10:33:26.884Z,159913.91
2023-03-05T10:36:31.015Z,159920.41
2023-03-05T10:39:40.889Z,159886.50
2023-03-05T10:43:03.398Z,159891.72
2023-03-05T10:46:16.026Z,159857.81
2023-03-05T10:49:26.724Z,159804.34
2023-03-05T10:52:40.548Z,159826.50
2023-03-05T10:55:44.788Z,159834.31
2023-03-05T10:58:48.964Z,159900.88
2023-03-05T11:02:08.481Z,159941.31
2023-03-05T11:05:31.711Z,160017.00
2023-03-05T11:08:36.777Z,160066.59
2023-03-05T11:11:40.758Z,160033.94
2023-03-05T11:14:46.919Z,160077.03
2023-03-05T11:18:18.107Z,160086.13
2023-03-05T11:21:27.757Z,160122.66
2023-03-05T11:24:31.785Z,160097.88
2023-03-05T11:27:41.208Z,160063.97
2023-03-05T11:30:56.001Z,160011.75
2023-03-05T11:34:18.684Z,159949.16
2023-03-05T11:37:28.988Z,159942.63
2023-03-05T11:40:37.396Z,159983.06
2023-03-05T11:43:43.910Z,160084.81
2023-03-05T11:46:52.642Z,160097.88
2023-03-05T11:50:23.139Z,160092.66
2023-03-05T11:53:29.501Z,160100.47
2023-03-05T11:56:37.386Z,160108.31
2023-03-05T11:59:42.973Z,160160.53
2023-03-05T12:02:52.108Z,160187.97
2023-03-05T12:06:12.993Z,160195.75
2023-03-05T12:09:47.868Z,160172.28
2023-03-05T12:13:06.891Z,160191.88
2023-03-05T12:16:28.129Z,160142.25
2023-03-05T12:19:41.296Z,160113.56
2023-03-05T12:22:45.789Z,160099.22
2023-03-05T12:25:57.016Z,160062.63
2023-03-05T12:29:01.334Z,160027.44
2023-03-05T12:32:28.940Z,160005.19
2023-03-05T12:35:37.532Z,159994.81
2023-03-05T12:38:41.870Z,159953.06
2023-03-05T12:41:46.229Z,159930.84
2023-03-05T12:45:14.544Z,159910.00
2023-03-05T12:48:18.420Z,159847.41
2023-03-05T12:51:32.103Z,159809.56
2023-03-05T12:54:41.182Z,159808.25
2023-03-05T12:57:46.096Z,159810.84
2023-03-05T13:00:55.934Z,159825.22
2023-03-05T13:04:14.595Z,159825.22
2023-03-05T13:07:19.261Z,159830.41
2023-03-05T13:10:28.797Z,159844.75
2023-03-05T13:13:38.176Z,159930.84
2023-03-05T13:16:42.842Z,159989.59
2023-03-05T13:19:47.131Z,160054.78
2023-03-05T13:23:18.817Z,160126.59
2023-03-05T13:26:22.599Z,160127.91
2023-03-05T13:29:28.360Z,160109.63
2023-03-05T13:32:33.370Z,160054.78
2023-03-05T13:35:44.938Z,160032.66
2023-03-05T13:38:49.765Z,160019.59
2023-03-05T13:42:05.752Z,160048.28
2023-03-05T13:45:31.822Z,160131.81
2023-03-05T13:48:36.255Z,160194.47
2023-03-05T13:51:43.068Z,160253.22
2023-03-05T13:54:47.307Z,160241.44
2023-03-05T13:57:55.573Z,160227.16
2023-03-05T14:01:14.971Z,160165.78
2023-03-05T14:04:30.752Z,160146.19
2023-03-05T14:07:41.082Z,160114.88
2023-03-05T14:10:45.223Z,160110.97
2023-03-05T14:14:00.211Z,160083.50
2023-03-05T14:17:42.298Z,160092.66
2023-03-05T14:21:03.849Z,160083.50
2023-03-05T14:24:21.626Z,160088.72
2023-03-05T14:27:25.946Z,160091.38
2023-03-05T14:30:30.912Z,160118.78
2023-03-05T14:33:35.057Z,160105.72
2023-03-05T14:36:40.616Z,160093.97
2023-03-05T14:39:54.830Z,160097.88
2023-03-05T14:43:00.440Z,160105.72
2023-03-05T14:46:04.362Z,160107.03
2023-03-05T14:49:08.790Z,160097.88
2023-03-05T14:52:19.342Z,160088.72
2023-03-05T14:55:26.139Z,160067.88
2023-03-05T14:58:35.480Z,160040.50
2023-03-05T15:01:39.729Z,160022.19
2023-03-05T15:04:46.401Z,160013.03
2023-03-05T15:07:51.382Z,160006.50
2023-03-05T15:10:55.781Z,160017.00
2023-03-05T15:13:59.758Z,160019.59
2023-03-05T15:17:03.942Z,160018.28
2023-03-05T15:20:30.581Z,160013.03
2023-03-05T15:23:38.122Z,160007.84
2023-03-05T15:26:42.179Z,160011.75
2023-03-05T15:29:46.471Z,160007.84
2023-03-05T15:32:52.496Z,160007.84
2023-03-05T15:35:57.616Z,160011.75
2023-03-05T15:39:01.840Z,160040.50
2023-03-05T15:42:06.580Z,160043.03
2023-03-05T15:45:11.109Z,160037.84
2023-03-05T15:48:15.213Z,160023.50
2023-03-05T15:51:20.390Z,160022.19
2023-03-05T15:54:24.292Z,159996.16
2023-03-05T15:57:28.367Z,159972.59
2023-03-05T16:00:35.868Z,159960.84
2023-03-05T16:03:40.088Z,159959.56
2023-03-05T16:06:47.571Z,159947.81
2023-03-05T16:09:52.105Z,159933.47
2023-03-05T16:13:04.619Z,159925.66
2023-03-05T16:16:09.726Z,159933.47
2023-03-05T16:19:16.801Z,159916.50
2023-03-05T16:22:21.010Z,159928.25
2023-03-05T16:25:25.263Z,159912.63
2023-03-05T16:28:29.038Z,159902.16
2023-03-05T16:31:34.842Z,159917.78
2023-03-05T16:34:38.890Z,159921.72
2023-03-05T16:37:43.250Z,159911.31
2023-03-05T16:41:09.306Z,159900.88
2023-03-05T16:44:11.767Z,159889.09
2023-03-05T16:47:15.854Z,159872.22
2023-03-05T16:50:19.862Z,159876.06
2023-03-05T16:53:24.208Z,159860.41
2023-03-05T16:56:28.665Z,159863.06
2023-03-05T16:59:33.147Z,159883.91
2023-03-05T17:02:37.550Z,159870.88
2023-03-05T17:05:41.581Z,159857.81
2023-03-05T17:08:46.683Z,159859.13
2023-03-05T17:11:52.020Z,159836.91
2023-03-05T17:14:56.458Z,159844.75
2023-03-05T17:18:01.196Z,159838.25
2023-03-05T17:21:07.471Z,159840.84
2023-03-05T17:24:12.128Z,159833.00
2023-03-05T17:27:18.757Z,159830.41
2023-03-05T17:30:23.030Z,159836.91
2023-03-05T17:33:28.951Z,159823.91
2023-03-05T17:36:33.414Z,159814.75
2023-03-05T17:39:38.446Z,159821.31
2023-03-05T17:42:42.448Z,159812.16
2023-03-05T17:45:47.410Z,159830.41
2023-03-05T17:48:51.836Z,159821.31
2023-03-05T17:51:56.450Z,159830.41
2023-03-05T17:55:00.943Z,159836.91
2023-03-05T17:58:04.799Z,159826.50
2023-03-05T18:01:09.473Z,159834.31
2023-03-05T18:04:15.234Z,159834.31
2023-03-05T18:07:19.741Z,159821.31
2023-03-05T18:10:25.296Z,159821.31
2023-03-05T18:13:29.222Z,159825.22
2023-03-05T18:16:34.663Z,159799.09
2023-03-05T18:19:38.468Z,159770.44
2023-03-05T18:22:42.683Z,159770.44
2023-03-05T18:25:47.478Z,159770.44
2023-03-05T18:28:51.842Z,159779.53
2023-03-05T18:31:56.162Z,159774.34
2023-03-05T18:34:59.825Z,159770.44
2023-03-05T18:38:03.788Z,159774.34
2023-03-05T18:41:08.277Z,159783.44
2023-03-05T18:44:13.392Z,159782.13
2023-03-05T18:47:17.724Z,159769.09
2023-03-05T18:50:24.646Z,159774.34
2023-03-05T18:53:28.628Z,159780.84
2023-03-05T18:56:33.584Z,159779.53
2023-03-05T18:59:37.943Z,159779.53
2023-03-05T19:02:42.227Z,159788.69
2023-03-05T19:05:46.267Z,159753.44
2023-03-05T19:08:56.930Z,159730.03
2023-03-05T19:12:00.795Z,159711.72
2023-03-05T19:15:06.417Z,159683.00
2023-03-05T19:18:10.249Z,159693.47
2023-03-05T19:21:17.410Z,159703.91
2023-03-05T19:24:23.741Z,159709.13
2023-03-05T19:27:28.385Z,159713.03
2023-03-05T19:30:32.717Z,159719.53
2023-03-05T19:33:36.877Z,159705.22
2023-03-05T19:36:41.154Z,159709.13
2023-03-05T19:39:45.368Z,159722.19
2023-03-05T19:42:49.595Z,159724.78
2023-03-05T19:46:00.475Z,159740.38
2023-03-05T19:49:04.678Z,159722.19
2023-03-05T19:52:08.822Z,159718.28
2023-03-05T19:55:12.989Z,159718.28
2023-03-05T19:58:17.096Z,159727.44
2023-03-05T20:01:27.110Z,159716.97
2023-03-05T20:04:31.544Z,159703.91
2023-03-05T20:07:35.842Z,159681.75
2023-03-05T20:10:39.958Z,159692.16
2023-03-05T20:13:44.422Z,159679.09
2023-03-05T20:16:48.528Z,159680.41
2023-03-05T20:19:52.336Z,159683.00
2023-03-05T20:22:56.886Z,159693.47
2023-03-05T20:26:00.969Z,159676.50
2023-03-05T20:29:06.296Z,159685.66
2023-03-05T20:32:10.366Z,159705.22
2023-03-05T20:35:17.090Z,159668.72
2023-03-05T20:38:25.388Z,159653.06
2023-03-05T20:41:30.533Z,159642.59
2023-03-05T20:44:34.668Z,159646.53
2023-03-05T20:47:44.661Z,159649.13
2023-03-05T20:50:48.947Z,159651.75
2023-03-05T20:53:58.054Z,159664.81
2023-03-05T20:57:02.428Z,159659.59
2023-03-05T21:00:07.860Z,159666.09
2023-03-05T21:03:11.857Z,159650.44
2023-03-05T21:06:16.764Z,159643.94
2023-03-05T21:09:21.356Z,159628.28
2023-03-05T21:12:25.755Z,159621.78
2023-03-05T21:15:30.779Z,159628.28
2023-03-05T21:18:35.232Z,159634.78
2023-03-05T21:21:40.385Z,159634.78
2023-03-05T21:25:02.022Z,159623.06
2023-03-05T21:28:08.306Z,159617.88
2023-03-05T21:31:19.055Z,159611.38
2023-03-05T21:34:23.094Z,159617.88
2023-03-05T21:37:27.397Z,159623.06
2023-03-05T21:40:33.387Z,159643.94
2023-03-05T21:43:37.776Z,159611.38
2023-03-05T21:46:42.734Z,159620.47
2023-03-05T21:49:46.848Z,159634.78
2023-03-05T21:52:51.883Z,159617.88
2023-03-05T21:56:25.509Z,159616.56
2023-03-05T21:59:30.001Z,159620.47
2023-03-05T22:02:34.085Z,159617.88
2023-03-05T22:05:38.361Z,159606.13
2023-03-05T22:08:42.910Z,159612.63
2023-03-05T22:11:47.386Z,159595.66
2023-03-05T22:14:51.715Z,159593.06
2023-03-05T22:17:55.705Z,159593.06
2023-03-05T22:21:00.486Z,159589.16
2023-03-05T22:24:05.158Z,159606.13
2023-03-05T22:27:09.526Z,159606.13
2023-03-05T22:30:13.939Z,159633.47
2023-03-05T22:33:17.977Z,159624.31
2023-03-05T22:36:22.817Z,159591.75
2023-03-05T22:39:26.746Z,159594.41
2023-03-05T22:42:30.820Z,159578.75
2023-03-05T22:45:35.452Z,159556.59
2023-03-05T22:48:39.454Z,159565.75
2023-03-05T22:51:43.568Z,159555.28
2023-03-05T22:54:47.788Z,159568.28
2023-03-05T22:57:52.314Z,159565.75
2023-03-05T23:00:56.352Z,159568.28
2023-03-05T23:04:08.086Z,159553.94
2023-03-05T23:07:12.441Z,159557.91
2023-03-05T23:10:26.956Z,159561.84
2023-03-05T23:13:31.237Z,159552.69
2023-03-05T23:16:35.459Z,159563.09
2023-03-05T23:19:39.954Z,159565.75
2023-03-05T23:22:45.159Z,159557.91
2023-03-05T23:25:51.625Z,159552.69
2023-03-05T23:28:55.546Z,159555.28
2023-03-05T23:32:00.197Z,159547.47
2023-03-05T23:35:04.601Z,159553.94
2023-03-05T23:38:12.819Z,159553.94
2023-03-05T23:41:16.648Z,159552.69
2023-03-05T23:44:20.820Z,159539.63
2023-03-05T23:47:25.372Z,159547.47
2023-03-05T23:50:32.927Z,159527.91
2023-03-05T23:53:37.602Z,159547.47
2023-03-05T23:56:41.675Z,159529.16
2023-03-05T23:59:45.740Z,159509.63
